sensor_id;sensor_type;location;lat;lon;timestamp;temperature;humidity
18508;DHT22;9383;50.928;12.116;2022-08-27T00:00:47;20.40;99.30
18508;DHT22;9383;50.928;12.116;2022-08-27T00:05:41;20.50;99.20
18508;DHT22;9383;50.928;12.116;2022-08-27T00:08:10;20.40;99.40
18508;DHT22;9383;50.928;12.116;2022-08-27T00:10:38;20.40;99.50
18508;DHT22;9383;50.928;12.116;2022-08-27T00:13:05;20.40;99.50
18508;DHT22;9383;50.928;12.116;2022-08-27T00:15:31;20.40;99.50
18508;DHT22;9383;50.928;12.116;2022-08-27T00:17:58;20.40;99.50
18508;DHT22;9383;50.928;12.116;2022-08-27T00:20:25;20.40;99.50
18508;DHT22;9383;50.928;12.116;2022-08-27T00:22:53;20.40;99.50
18508;DHT22;9383;50.928;12.116;2022-08-27T00:25:20;20.50;99.50
18508;DHT22;9383;50.928;12.116;2022-08-27T00:27:46;20.50;99.50
18508;DHT22;9383;50.928;12.116;2022-08-27T00:30:15;20.40;99.40
18508;DHT22;9383;50.928;12.116;2022-08-27T00:32:43;20.40;99.40
18508;DHT22;9383;50.928;12.116;2022-08-27T00:35:11;20.50;99.40
18508;DHT22;9383;50.928;12.116;2022-08-27T00:40:08;20.50;99.20
18508;DHT22;9383;50.928;12.116;2022-08-27T00:42:36;20.50;99.40
18508;DHT22;9383;50.928;12.116;2022-08-27T00:45:04;20.40;99.10
18508;DHT22;9383;50.928;12.116;2022-08-27T00:47:34;20.50;99.40
18508;DHT22;9383;50.928;12.116;2022-08-27T00:50:12;20.50;99.40
18508;DHT22;9383;50.928;12.116;2022-08-27T00:52:52;20.50;99.50
18508;DHT22;9383;50.928;12.116;2022-08-27T00:55:24;20.50;99.50
18508;DHT22;9383;50.928;12.116;2022-08-27T00:58:17;20.50;99.50
18508;DHT22;9383;50.928;12.116;2022-08-27T01:00:53;20.50;99.50
18508;DHT22;9383;50.928;12.116;2022-08-27T01:03:21;20.50;99.40
18508;DHT22;9383;50.928;12.116;2022-08-27T01:05:48;20.40;99.30
18508;DHT22;9383;50.928;12.116;2022-08-27T01:08:19;20.40;99.30
18508;DHT22;9383;50.928;12.116;2022-08-27T01:10:49;20.50;99.30
18508;DHT22;9383;50.928;12.116;2022-08-27T01:13:20;20.40;99.30
18508;DHT22;9383;50.928;12.116;2022-08-27T01:15:48;20.50;99.30
18508;DHT22;9383;50.928;12.116;2022-08-27T01:18:15;20.50;99.30
18508;DHT22;9383;50.928;12.116;2022-08-27T01:20:49;20.40;99.30
18508;DHT22;9383;50.928;12.116;2022-08-27T01:23:43;20.50;99.40
18508;DHT22;9383;50.928;12.116;2022-08-27T01:26:16;20.50;99.40
18508;DHT22;9383;50.928;12.116;2022-08-27T01:28:43;20.50;99.40
18508;DHT22;9383;50.928;12.116;2022-08-27T01:31:10;20.50;99.40
18508;DHT22;9383;50.928;12.116;2022-08-27T01:33:37;20.50;99.50
18508;DHT22;9383;50.928;12.116;2022-08-27T01:36:05;20.30;99.40
18508;DHT22;9383;50.928;12.116;2022-08-27T01:38:32;20.70;99.60
18508;DHT22;9383;50.928;12.116;2022-08-27T01:41:00;20.40;99.50
18508;DHT22;9383;50.928;12.116;2022-08-27T01:43:28;20.40;99.50
18508;DHT22;9383;50.928;12.116;2022-08-27T01:45:55;20.50;99.60
18508;DHT22;9383;50.928;12.116;2022-08-27T01:48:21;20.50;99.60
18508;DHT22;9383;50.928;12.116;2022-08-27T01:50:48;20.40;99.60
18508;DHT22;9383;50.928;12.116;2022-08-27T01:53:17;20.40;99.60
18508;DHT22;9383;50.928;12.116;2022-08-27T01:55:47;20.40;99.70
18508;DHT22;9383;50.928;12.116;2022-08-27T01:58:16;20.40;99.70
18508;DHT22;9383;50.928;12.116;2022-08-27T02:00:46;20.40;99.70
18508;DHT22;9383;50.928;12.116;2022-08-27T02:03:15;20.40;99.80
18508;DHT22;9383;50.928;12.116;2022-08-27T02:05:44;20.40;99.80
18508;DHT22;9383;50.928;12.116;2022-08-27T02:08:12;20.40;99.80
18508;DHT22;9383;50.928;12.116;2022-08-27T02:10:41;20.40;99.80
18508;DHT22;9383;50.928;12.116;2022-08-27T02:13:09;20.40;99.90
18508;DHT22;9383;50.928;12.116;2022-08-27T02:15:35;20.20;99.90
18508;DHT22;9383;50.928;12.116;2022-08-27T02:18:03;20.30;99.90
18508;DHT22;9383;50.928;12.116;2022-08-27T02:20:31;21.30;99.90
18508;DHT22;9383;50.928;12.116;2022-08-27T02:22:57;20.30;99.90
18508;DHT22;9383;50.928;12.116;2022-08-27T02:25:25;20.20;99.90
18508;DHT22;9383;50.928;12.116;2022-08-27T02:27:52;20.20;99.90
18508;DHT22;9383;50.928;12.116;2022-08-27T02:30:21;20.20;99.90
18508;DHT22;9383;50.928;12.116;2022-08-27T02:32:49;20.10;99.90
18508;DHT22;9383;50.928;12.116;2022-08-27T02:35:20;20.20;99.90
18508;DHT22;9383;50.928;12.116;2022-08-27T02:37:48;20.10;99.90
18508;DHT22;9383;50.928;12.116;2022-08-27T02:40:17;20.10;99.90
18508;DHT22;9383;50.928;12.116;2022-08-27T02:42:46;20.10;99.90
18508;DHT22;9383;50.928;12.116;2022-08-27T02:45:14;20.10;99.90
18508;DHT22;9383;50.928;12.116;2022-08-27T02:47:41;20.10;99.90
18508;DHT22;9383;50.928;12.116;2022-08-27T02:50:08;20.10;99.90
18508;DHT22;9383;50.928;12.116;2022-08-27T02:52:35;20.20;99.90
18508;DHT22;9383;50.928;12.116;2022-08-27T02:55:02;20.10;99.90
18508;DHT22;9383;50.928;12.116;2022-08-27T02:57:29;20.10;99.90
18508;DHT22;9383;50.928;12.116;2022-08-27T02:59:56;20.10;99.90
18508;DHT22;9383;50.928;12.116;2022-08-27T03:02:22;20.20;99.90
18508;DHT22;9383;50.928;12.116;2022-08-27T03:04:49;20.10;99.90
18508;DHT22;9383;50.928;12.116;2022-08-27T03:07:16;20.10;99.90
18508;DHT22;9383;50.928;12.116;2022-08-27T03:09:42;20.10;99.90
18508;DHT22;9383;50.928;12.116;2022-08-27T03:12:08;20.20;99.90
18508;DHT22;9383;50.928;12.116;2022-08-27T03:14:34;20.20;99.90
18508;DHT22;9383;50.928;12.116;2022-08-27T03:17:00;20.20;99.90
18508;DHT22;9383;50.928;12.116;2022-08-27T03:19:46;20.20;99.90
18508;DHT22;9383;50.928;12.116;2022-08-27T03:22:13;20.20;99.90
18508;DHT22;9383;50.928;12.116;2022-08-27T03:24:39;20.20;99.90
18508;DHT22;9383;50.928;12.116;2022-08-27T03:27:08;20.30;99.90
18508;DHT22;9383;50.928;12.116;2022-08-27T03:29:35;20.20;99.90
18508;DHT22;9383;50.928;12.116;2022-08-27T03:32:01;20.30;99.90
18508;DHT22;9383;50.928;12.116;2022-08-27T03:34:30;20.30;99.90
18508;DHT22;9383;50.928;12.116;2022-08-27T03:36:56;20.30;99.90
18508;DHT22;9383;50.928;12.116;2022-08-27T03:39:22;20.30;99.90
18508;DHT22;9383;50.928;12.116;2022-08-27T03:41:48;20.30;99.90
18508;DHT22;9383;50.928;12.116;2022-08-27T03:44:15;20.30;99.90
18508;DHT22;9383;50.928;12.116;2022-08-27T03:46:41;20.30;99.90
18508;DHT22;9383;50.928;12.116;2022-08-27T03:51:34;20.20;99.90
18508;DHT22;9383;50.928;12.116;2022-08-27T03:54:01;20.30;99.90
18508;DHT22;9383;50.928;12.116;2022-08-27T03:56:28;20.20;99.90
18508;DHT22;9383;50.928;12.116;2022-08-27T03:58:54;20.20;99.90
18508;DHT22;9383;50.928;12.116;2022-08-27T04:01:20;20.20;99.90
18508;DHT22;9383;50.928;12.116;2022-08-27T04:18:26;19.90;99.90
18508;DHT22;9383;50.928;12.116;2022-08-27T04:20:52;19.80;99.90
18508;DHT22;9383;50.928;12.116;2022-08-27T04:23:18;19.80;99.90
18508;DHT22;9383;50.928;12.116;2022-08-27T04:25:45;19.80;99.90
18508;DHT22;9383;50.928;12.116;2022-08-27T04:28:12;19.80;99.90
18508;DHT22;9383;50.928;12.116;2022-08-27T04:30:44;19.80;99.90
18508;DHT22;9383;50.928;12.116;2022-08-27T04:33:12;19.80;99.90
18508;DHT22;9383;50.928;12.116;2022-08-27T04:35:39;19.80;99.90
18508;DHT22;9383;50.928;12.116;2022-08-27T04:40:32;19.80;99.90
18508;DHT22;9383;50.928;12.116;2022-08-27T04:43:17;19.80;99.90
18508;DHT22;9383;50.928;12.116;2022-08-27T04:45:45;19.70;99.90
18508;DHT22;9383;50.928;12.116;2022-08-27T04:48:15;19.70;99.90
18508;DHT22;9383;50.928;12.116;2022-08-27T04:50:46;20.00;99.90
18508;DHT22;9383;50.928;12.116;2022-08-27T04:53:14;19.60;99.90
18508;DHT22;9383;50.928;12.116;2022-08-27T04:55:50;19.60;99.90
18508;DHT22;9383;50.928;12.116;2022-08-27T04:58:20;19.60;99.90
18508;DHT22;9383;50.928;12.116;2022-08-27T05:00:50;19.50;99.90
18508;DHT22;9383;50.928;12.116;2022-08-27T05:03:22;19.50;99.90
18508;DHT22;9383;50.928;12.116;2022-08-27T05:05:50;19.50;99.90
18508;DHT22;9383;50.928;12.116;2022-08-27T05:08:18;19.30;99.90
18508;DHT22;9383;50.928;12.116;2022-08-27T05:10:47;19.50;99.90
18508;DHT22;9383;50.928;12.116;2022-08-27T05:13:16;19.50;99.90
18508;DHT22;9383;50.928;12.116;2022-08-27T05:15:45;19.50;99.90
18508;DHT22;9383;50.928;12.116;2022-08-27T05:18:12;19.40;99.90
18508;DHT22;9383;50.928;12.116;2022-08-27T05:20:45;19.60;99.90
18508;DHT22;9383;50.928;12.116;2022-08-27T05:23:17;19.50;99.90
18508;DHT22;9383;50.928;12.116;2022-08-27T05:25:47;19.60;99.90
18508;DHT22;9383;50.928;12.116;2022-08-27T05:28:16;19.60;99.90
18508;DHT22;9383;50.928;12.116;2022-08-27T05:30:48;19.50;99.90
18508;DHT22;9383;50.928;12.116;2022-08-27T05:33:19;19.50;99.90
18508;DHT22;9383;50.928;12.116;2022-08-27T05:35:50;19.50;99.90
18508;DHT22;9383;50.928;12.116;2022-08-27T05:38:19;19.50;99.90
18508;DHT22;9383;50.928;12.116;2022-08-27T05:40:48;19.60;99.90
18508;DHT22;9383;50.928;12.116;2022-08-27T05:43:15;19.50;99.90
18508;DHT22;9383;50.928;12.116;2022-08-27T05:45:45;19.60;99.90
18508;DHT22;9383;50.928;12.116;2022-08-27T05:48:15;19.50;99.90
18508;DHT22;9383;50.928;12.116;2022-08-27T05:50:43;19.50;99.90
18508;DHT22;9383;50.928;12.116;2022-08-27T05:53:11;19.60;99.90
18508;DHT22;9383;50.928;12.116;2022-08-27T05:55:43;19.60;99.90
18508;DHT22;9383;50.928;12.116;2022-08-27T05:58:11;19.60;99.90
18508;DHT22;9383;50.928;12.116;2022-08-27T06:00:59;19.60;99.90
18508;DHT22;9383;50.928;12.116;2022-08-27T06:03:33;19.60;99.90
18508;DHT22;9383;50.928;12.116;2022-08-27T06:06:08;19.70;99.90
18508;DHT22;9383;50.928;12.116;2022-08-27T06:08:37;19.70;99.90
18508;DHT22;9383;50.928;12.116;2022-08-27T06:11:05;19.70;99.90
18508;DHT22;9383;50.928;12.116;2022-08-27T06:13:33;19.80;99.90
18508;DHT22;9383;50.928;12.116;2022-08-27T06:18:33;19.80;99.90
18508;DHT22;9383;50.928;12.116;2022-08-27T06:21:00;19.80;99.90
18508;DHT22;9383;50.928;12.116;2022-08-27T06:23:27;19.80;99.90
18508;DHT22;9383;50.928;12.116;2022-08-27T06:25:55;19.80;99.90
18508;DHT22;9383;50.928;12.116;2022-08-27T06:28:24;19.80;99.90
18508;DHT22;9383;50.928;12.116;2022-08-27T06:31:15;19.80;99.90
18508;DHT22;9383;50.928;12.116;2022-08-27T06:33:43;19.90;99.90
18508;DHT22;9383;50.928;12.116;2022-08-27T06:36:14;22.20;99.90
18508;DHT22;9383;50.928;12.116;2022-08-27T06:38:43;19.90;99.90
18508;DHT22;9383;50.928;12.116;2022-08-27T06:41:11;19.90;99.90
18508;DHT22;9383;50.928;12.116;2022-08-27T06:43:39;19.80;99.90
18508;DHT22;9383;50.928;12.116;2022-08-27T06:46:10;19.80;99.90
18508;DHT22;9383;50.928;12.116;2022-08-27T06:48:38;19.80;99.90
18508;DHT22;9383;50.928;12.116;2022-08-27T06:51:17;19.80;99.90
18508;DHT22;9383;50.928;12.116;2022-08-27T06:53:46;19.80;99.90
18508;DHT22;9383;50.928;12.116;2022-08-27T06:56:15;19.80;99.90
18508;DHT22;9383;50.928;12.116;2022-08-27T06:58:43;19.80;99.90
18508;DHT22;9383;50.928;12.116;2022-08-27T07:01:18;19.90;99.90
18508;DHT22;9383;50.928;12.116;2022-08-27T07:03:47;19.90;99.90
18508;DHT22;9383;50.928;12.116;2022-08-27T07:06:14;19.90;99.90
18508;DHT22;9383;50.928;12.116;2022-08-27T07:08:41;19.90;99.90
18508;DHT22;9383;50.928;12.116;2022-08-27T07:11:11;19.90;99.90
18508;DHT22;9383;50.928;12.116;2022-08-27T07:13:39;19.90;99.90
18508;DHT22;9383;50.928;12.116;2022-08-27T07:16:13;19.90;99.90
18508;DHT22;9383;50.928;12.116;2022-08-27T07:18:41;19.90;99.90
18508;DHT22;9383;50.928;12.116;2022-08-27T07:21:08;20.00;99.90
18508;DHT22;9383;50.928;12.116;2022-08-27T07:23:36;19.90;99.90
18508;DHT22;9383;50.928;12.116;2022-08-27T07:26:08;19.90;99.90
18508;DHT22;9383;50.928;12.116;2022-08-27T07:28:36;20.00;99.90
18508;DHT22;9383;50.928;12.116;2022-08-27T07:31:08;20.00;99.90
18508;DHT22;9383;50.928;12.116;2022-08-27T07:33:37;20.00;99.90
18508;DHT22;9383;50.928;12.116;2022-08-27T07:36:05;20.00;99.90
18508;DHT22;9383;50.928;12.116;2022-08-27T07:38:33;20.00;99.90
18508;DHT22;9383;50.928;12.116;2022-08-27T07:41:09;20.00;99.90
18508;DHT22;9383;50.928;12.116;2022-08-27T07:46:23;20.00;99.90
18508;DHT22;9383;50.928;12.116;2022-08-27T07:48:50;20.00;99.90
18508;DHT22;9383;50.928;12.116;2022-08-27T07:51:20;19.90;99.90
18508;DHT22;9383;50.928;12.116;2022-08-27T07:53:47;19.90;99.90
18508;DHT22;9383;50.928;12.116;2022-08-27T07:56:14;19.90;99.90
18508;DHT22;9383;50.928;12.116;2022-08-27T07:58:41;22.30;99.90
18508;DHT22;9383;50.928;12.116;2022-08-27T08:01:09;20.00;99.90
18508;DHT22;9383;50.928;12.116;2022-08-27T08:03:36;19.90;99.90
18508;DHT22;9383;50.928;12.116;2022-08-27T08:06:05;19.90;99.90
18508;DHT22;9383;50.928;12.116;2022-08-27T08:08:34;19.90;99.90
18508;DHT22;9383;50.928;12.116;2022-08-27T08:11:02;19.90;99.90
18508;DHT22;9383;50.928;12.116;2022-08-27T08:13:29;19.90;99.90
18508;DHT22;9383;50.928;12.116;2022-08-27T08:15:57;19.90;99.90
18508;DHT22;9383;50.928;12.116;2022-08-27T08:18:24;19.90;99.90
18508;DHT22;9383;50.928;12.116;2022-08-27T08:20:51;19.90;99.90
18508;DHT22;9383;50.928;12.116;2022-08-27T08:23:17;19.90;99.90
18508;DHT22;9383;50.928;12.116;2022-08-27T08:25:45;19.80;99.90
18508;DHT22;9383;50.928;12.116;2022-08-27T08:28:11;19.90;99.90
18508;DHT22;9383;50.928;12.116;2022-08-27T08:33:07;19.90;99.90
18508;DHT22;9383;50.928;12.116;2022-08-27T08:35:36;19.90;99.90
18508;DHT22;9383;50.928;12.116;2022-08-27T08:38:03;19.90;99.90
18508;DHT22;9383;50.928;12.116;2022-08-27T08:40:33;19.90;99.90
18508;DHT22;9383;50.928;12.116;2022-08-27T08:43:17;19.90;99.90
18508;DHT22;9383;50.928;12.116;2022-08-27T08:45:50;20.00;99.90
18508;DHT22;9383;50.928;12.116;2022-08-27T08:48:21;19.90;99.90
18508;DHT22;9383;50.928;12.116;2022-08-27T08:51:06;19.90;99.90
18508;DHT22;9383;50.928;12.116;2022-08-27T08:53:49;21.90;99.90
18508;DHT22;9383;50.928;12.116;2022-08-27T08:56:47;19.90;99.90
18508;DHT22;9383;50.928;12.116;2022-08-27T08:59:39;19.90;99.90
18508;DHT22;9383;50.928;12.116;2022-08-27T09:02:12;19.90;99.90
18508;DHT22;9383;50.928;12.116;2022-08-27T09:04:41;20.10;99.90
18508;DHT22;9383;50.928;12.116;2022-08-27T09:07:12;19.90;99.90
18508;DHT22;9383;50.928;12.116;2022-08-27T09:09:54;19.90;99.90
18508;DHT22;9383;50.928;12.116;2022-08-27T09:12:29;19.90;99.90
18508;DHT22;9383;50.928;12.116;2022-08-27T09:15:15;19.90;99.90
18508;DHT22;9383;50.928;12.116;2022-08-27T09:17:45;19.90;99.90
18508;DHT22;9383;50.928;12.116;2022-08-27T09:20:15;19.90;99.90
18508;DHT22;9383;50.928;12.116;2022-08-27T09:23:15;19.90;99.90
18508;DHT22;9383;50.928;12.116;2022-08-27T09:25:53;19.90;99.90
18508;DHT22;9383;50.928;12.116;2022-08-27T09:28:25;19.90;99.90
18508;DHT22;9383;50.928;12.116;2022-08-27T09:31:15;19.90;99.90
18508;DHT22;9383;50.928;12.116;2022-08-27T09:33:43;20.00;99.90
18508;DHT22;9383;50.928;12.116;2022-08-27T09:36:13;19.90;99.90
18508;DHT22;9383;50.928;12.116;2022-08-27T09:38:54;19.90;99.90
18508;DHT22;9383;50.928;12.116;2022-08-27T09:41:42;19.90;99.90
18508;DHT22;9383;50.928;12.116;2022-08-27T09:44:17;19.90;99.90
18508;DHT22;9383;50.928;12.116;2022-08-27T09:46:53;19.90;99.90
18508;DHT22;9383;50.928;12.116;2022-08-27T09:52:01;19.90;99.90
18508;DHT22;9383;50.928;12.116;2022-08-27T09:54:48;19.90;99.90
18508;DHT22;9383;50.928;12.116;2022-08-27T09:57:30;19.90;99.90
18508;DHT22;9383;50.928;12.116;2022-08-27T10:02:26;19.90;99.90
18508;DHT22;9383;50.928;12.116;2022-08-27T10:04:56;19.90;99.90
18508;DHT22;9383;50.928;12.116;2022-08-27T10:07:52;20.00;99.90
18508;DHT22;9383;50.928;12.116;2022-08-27T10:10:51;19.90;99.90
18508;DHT22;9383;50.928;12.116;2022-08-27T10:13:22;20.00;99.90
18508;DHT22;9383;50.928;12.116;2022-08-27T10:16:08;19.90;99.90
18508;DHT22;9383;50.928;12.116;2022-08-27T10:19:15;20.00;99.90
18508;DHT22;9383;50.928;12.116;2022-08-27T10:22:03;20.00;99.90
18508;DHT22;9383;50.928;12.116;2022-08-27T10:27:50;20.00;99.90
18508;DHT22;9383;50.928;12.116;2022-08-27T10:42:25;21.20;99.90
18508;DHT22;9383;50.928;12.116;2022-08-27T10:51:00;20.10;99.90
18508;DHT22;9383;50.928;12.116;2022-08-27T10:54:04;20.10;99.90
18508;DHT22;9383;50.928;12.116;2022-08-27T10:56:51;20.10;99.90
18508;DHT22;9383;50.928;12.116;2022-08-27T11:00:29;20.20;99.90
18508;DHT22;9383;50.928;12.116;2022-08-27T11:02:35;20.20;99.90
18508;DHT22;9383;50.928;12.116;2022-08-27T11:05:26;20.20;99.90
18508;DHT22;9383;50.928;12.116;2022-08-27T11:08:05;20.20;99.90
18508;DHT22;9383;50.928;12.116;2022-08-27T11:10:43;20.20;99.90
18508;DHT22;9383;50.928;12.116;2022-08-27T11:13:18;20.20;99.90
18508;DHT22;9383;50.928;12.116;2022-08-27T11:15:48;20.30;99.90
18508;DHT22;9383;50.928;12.116;2022-08-27T11:21:36;20.20;99.90
18508;DHT22;9383;50.928;12.116;2022-08-27T11:24:18;20.30;99.90
18508;DHT22;9383;50.928;12.116;2022-08-27T11:26:56;20.30;99.90
18508;DHT22;9383;50.928;12.116;2022-08-27T11:29:48;20.30;99.90
18508;DHT22;9383;50.928;12.116;2022-08-27T11:32:43;20.10;99.90
18508;DHT22;9383;50.928;12.116;2022-08-27T11:35:55;20.10;99.90
18508;DHT22;9383;50.928;12.116;2022-08-27T11:44:48;20.00;99.90
18508;DHT22;9383;50.928;12.116;2022-08-27T11:47:24;20.10;99.90
18508;DHT22;9383;50.928;12.116;2022-08-27T11:49:55;20.00;99.90
18508;DHT22;9383;50.928;12.116;2022-08-27T11:52:31;20.00;99.90
18508;DHT22;9383;50.928;12.116;2022-08-27T11:57:48;19.90;99.90
18508;DHT22;9383;50.928;12.116;2022-08-27T12:02:58;19.90;99.90
18508;DHT22;9383;50.928;12.116;2022-08-27T12:05:39;19.90;99.90
18508;DHT22;9383;50.928;12.116;2022-08-27T12:08:27;19.90;99.90
18508;DHT22;9383;50.928;12.116;2022-08-27T12:14:44;20.70;99.90
18508;DHT22;9383;50.928;12.116;2022-08-27T12:20:11;20.00;99.90
18508;DHT22;9383;50.928;12.116;2022-08-27T12:23:19;20.00;99.90
18508;DHT22;9383;50.928;12.116;2022-08-27T12:29:18;20.10;99.90
18508;DHT22;9383;50.928;12.116;2022-08-27T12:31:54;20.20;99.90
18508;DHT22;9383;50.928;12.116;2022-08-27T12:34:27;18.50;99.90
18508;DHT22;9383;50.928;12.116;2022-08-27T12:36:55;20.30;99.90
18508;DHT22;9383;50.928;12.116;2022-08-27T12:39:26;20.30;99.90
18508;DHT22;9383;50.928;12.116;2022-08-27T12:41:55;20.30;99.90
18508;DHT22;9383;50.928;12.116;2022-08-27T12:44:27;20.30;99.90
18508;DHT22;9383;50.928;12.116;2022-08-27T12:47:02;20.30;99.90
18508;DHT22;9383;50.928;12.116;2022-08-27T12:49:48;20.40;99.90
18508;DHT22;9383;50.928;12.116;2022-08-27T12:58:22;20.70;99.90
18508;DHT22;9383;50.928;12.116;2022-08-27T13:01:23;20.80;99.90
18508;DHT22;9383;50.928;12.116;2022-08-27T13:03:55;20.90;99.90
18508;DHT22;9383;50.928;12.116;2022-08-27T13:06:31;21.00;99.90
18508;DHT22;9383;50.928;12.116;2022-08-27T13:09:03;21.00;99.90
18508;DHT22;9383;50.928;12.116;2022-08-27T13:11:34;21.00;99.90
18508;DHT22;9383;50.928;12.116;2022-08-27T13:14:16;21.10;99.90
18508;DHT22;9383;50.928;12.116;2022-08-27T13:16:53;21.10;99.90
18508;DHT22;9383;50.928;12.116;2022-08-27T13:19:32;21.10;99.90
18508;DHT22;9383;50.928;12.116;2022-08-27T13:22:08;21.20;99.90
18508;DHT22;9383;50.928;12.116;2022-08-27T13:24:43;21.30;99.90
18508;DHT22;9383;50.928;12.116;2022-08-27T13:27:11;21.30;99.90
18508;DHT22;9383;50.928;12.116;2022-08-27T13:29:38;21.20;99.90
18508;DHT22;9383;50.928;12.116;2022-08-27T13:32:06;21.30;99.90
18508;DHT22;9383;50.928;12.116;2022-08-27T13:34:38;21.30;99.90
18508;DHT22;9383;50.928;12.116;2022-08-27T13:37:24;21.20;99.90
18508;DHT22;9383;50.928;12.116;2022-08-27T13:39:53;21.30;99.90
18508;DHT22;9383;50.928;12.116;2022-08-27T13:42:22;21.30;99.90
18508;DHT22;9383;50.928;12.116;2022-08-27T13:44:51;21.30;99.90
18508;DHT22;9383;50.928;12.116;2022-08-27T13:47:26;21.30;99.90
18508;DHT22;9383;50.928;12.116;2022-08-27T13:50:12;21.30;99.90
18508;DHT22;9383;50.928;12.116;2022-08-27T13:52:45;21.30;99.90
18508;DHT22;9383;50.928;12.116;2022-08-27T13:55:30;21.20;99.90
18508;DHT22;9383;50.928;12.116;2022-08-27T13:57:56;21.20;99.90
18508;DHT22;9383;50.928;12.116;2022-08-27T14:00:32;21.20;99.90
18508;DHT22;9383;50.928;12.116;2022-08-27T14:02:59;21.20;99.90
18508;DHT22;9383;50.928;12.116;2022-08-27T14:05:29;21.20;99.90
18508;DHT22;9383;50.928;12.116;2022-08-27T14:08:13;21.30;99.90
18508;DHT22;9383;50.928;12.116;2022-08-27T14:10:58;21.30;99.90
18508;DHT22;9383;50.928;12.116;2022-08-27T14:13:26;21.30;99.90
18508;DHT22;9383;50.928;12.116;2022-08-27T14:15:56;21.40;99.90
18508;DHT22;9383;50.928;12.116;2022-08-27T14:18:35;21.50;99.90
18508;DHT22;9383;50.928;12.116;2022-08-27T14:21:02;21.40;99.90
18508;DHT22;9383;50.928;12.116;2022-08-27T14:23:30;22.70;99.90
18508;DHT22;9383;50.928;12.116;2022-08-27T14:25:59;21.50;99.90
18508;DHT22;9383;50.928;12.116;2022-08-27T14:28:27;21.60;99.90
18508;DHT22;9383;50.928;12.116;2022-08-27T14:30:53;21.50;99.90
18508;DHT22;9383;50.928;12.116;2022-08-27T14:38:16;21.70;99.20
18508;DHT22;9383;50.928;12.116;2022-08-27T14:40:46;21.70;99.60
18508;DHT22;9383;50.928;12.116;2022-08-27T14:43:15;21.80;98.70
18508;DHT22;9383;50.928;12.116;2022-08-27T14:45:43;21.80;99.00
18508;DHT22;9383;50.928;12.116;2022-08-27T14:48:14;21.90;97.80
18508;DHT22;9383;50.928;12.116;2022-08-27T14:50:45;21.80;98.00
18508;DHT22;9383;50.928;12.116;2022-08-27T15:05:25;21.80;98.30
18508;DHT22;9383;50.928;12.116;2022-08-27T15:07:52;21.80;98.30
18508;DHT22;9383;50.928;12.116;2022-08-27T15:10:20;21.80;98.40
18508;DHT22;9383;50.928;12.116;2022-08-27T15:12:47;21.80;97.90
18508;DHT22;9383;50.928;12.116;2022-08-27T15:15:15;21.80;98.00
18508;DHT22;9383;50.928;12.116;2022-08-27T15:20:12;21.80;98.10
18508;DHT22;9383;50.928;12.116;2022-08-27T15:22:41;21.90;98.20
18508;DHT22;9383;50.928;12.116;2022-08-27T15:25:11;22.00;98.00
18508;DHT22;9383;50.928;12.116;2022-08-27T15:27:39;21.90;98.20
18508;DHT22;9383;50.928;12.116;2022-08-27T15:30:08;21.90;97.50
18508;DHT22;9383;50.928;12.116;2022-08-27T15:32:42;21.90;97.70
18508;DHT22;9383;50.928;12.116;2022-08-27T15:35:14;21.90;97.40
18508;DHT22;9383;50.928;12.116;2022-08-27T15:37:42;21.90;97.60
18508;DHT22;9383;50.928;12.116;2022-08-27T15:40:10;21.90;97.30
18508;DHT22;9383;50.928;12.116;2022-08-27T15:42:39;21.90;97.20
18508;DHT22;9383;50.928;12.116;2022-08-27T15:45:07;21.90;97.50
18508;DHT22;9383;50.928;12.116;2022-08-27T15:47:35;21.90;97.70
18508;DHT22;9383;50.928;12.116;2022-08-27T15:50:01;21.80;97.30
18508;DHT22;9383;50.928;12.116;2022-08-27T15:52:27;21.80;97.20
18508;DHT22;9383;50.928;12.116;2022-08-27T15:59:47;21.80;97.00
18508;DHT22;9383;50.928;12.116;2022-08-27T16:02:16;21.80;96.90
18508;DHT22;9383;50.928;12.116;2022-08-27T16:04:44;21.70;97.00
18508;DHT22;9383;50.928;12.116;2022-08-27T16:07:11;21.70;97.10
18508;DHT22;9383;50.928;12.116;2022-08-27T16:09:38;21.60;97.00
18508;DHT22;9383;50.928;12.116;2022-08-27T16:12:05;23.40;97.70
18508;DHT22;9383;50.928;12.116;2022-08-27T16:14:32;21.50;97.00
18508;DHT22;9383;50.928;12.116;2022-08-27T16:16:58;21.60;97.00
18508;DHT22;9383;50.928;12.116;2022-08-27T16:24:18;21.50;97.00
18508;DHT22;9383;50.928;12.116;2022-08-27T16:26:46;21.50;97.40
18508;DHT22;9383;50.928;12.116;2022-08-27T16:29:14;21.50;97.10
18508;DHT22;9383;50.928;12.116;2022-08-27T16:34:14;21.50;97.30
18508;DHT22;9383;50.928;12.116;2022-08-27T16:39:10;21.40;97.30
18508;DHT22;9383;50.928;12.116;2022-08-27T16:41:37;21.40;97.30
18508;DHT22;9383;50.928;12.116;2022-08-27T16:44:03;21.40;97.40
18508;DHT22;9383;50.928;12.116;2022-08-27T16:46:30;21.40;97.30
18508;DHT22;9383;50.928;12.116;2022-08-27T16:48:56;21.40;97.30
18508;DHT22;9383;50.928;12.116;2022-08-27T16:51:41;21.40;97.60
18508;DHT22;9383;50.928;12.116;2022-08-27T16:54:09;21.40;97.40
18508;DHT22;9383;50.928;12.116;2022-08-27T16:56:37;21.30;97.30
18508;DHT22;9383;50.928;12.116;2022-08-27T16:59:05;21.30;97.40
18508;DHT22;9383;50.928;12.116;2022-08-27T17:01:32;21.30;97.40
18508;DHT22;9383;50.928;12.116;2022-08-27T17:03:59;23.60;98.20
18508;DHT22;9383;50.928;12.116;2022-08-27T17:06:27;21.20;97.50
18508;DHT22;9383;50.928;12.116;2022-08-27T17:11:23;21.20;97.20
18508;DHT22;9383;50.928;12.116;2022-08-27T17:13:54;21.20;97.30
18508;DHT22;9383;50.928;12.116;2022-08-27T17:16:28;21.10;97.50
18508;DHT22;9383;50.928;12.116;2022-08-27T17:19:00;21.10;97.30
18508;DHT22;9383;50.928;12.116;2022-08-27T17:21:29;21.10;97.60
18508;DHT22;9383;50.928;12.116;2022-08-27T17:23:59;21.10;97.30
18508;DHT22;9383;50.928;12.116;2022-08-27T17:26:30;21.10;97.10
18508;DHT22;9383;50.928;12.116;2022-08-27T17:28:58;20.90;97.00
18508;DHT22;9383;50.928;12.116;2022-08-27T17:31:26;20.90;97.00
18508;DHT22;9383;50.928;12.116;2022-08-27T17:33:57;20.90;97.00
18508;DHT22;9383;50.928;12.116;2022-08-27T17:36:26;20.80;97.00
18508;DHT22;9383;50.928;12.116;2022-08-27T17:38:54;20.80;97.20
18508;DHT22;9383;50.928;12.116;2022-08-27T17:41:28;20.80;97.60
18508;DHT22;9383;50.928;12.116;2022-08-27T17:44:00;20.70;97.40
18508;DHT22;9383;50.928;12.116;2022-08-27T17:46:29;20.50;97.70
18508;DHT22;9383;50.928;12.116;2022-08-27T17:48:55;20.60;97.30
18508;DHT22;9383;50.928;12.116;2022-08-27T17:53:51;20.50;97.50
18508;DHT22;9383;50.928;12.116;2022-08-27T17:56:21;20.40;97.90
18508;DHT22;9383;50.928;12.116;2022-08-27T17:58:49;20.40;97.80
18508;DHT22;9383;50.928;12.116;2022-08-27T18:01:21;20.20;97.70
18508;DHT22;9383;50.928;12.116;2022-08-27T18:03:50;20.20;97.80
18508;DHT22;9383;50.928;12.116;2022-08-27T18:06:17;20.30;98.00